Latest Weather Observations for Port Pirie Airport AWS

IDS60801

Issued at 8:11 pm CDT Sunday 24 January 2021 (issued every 10 minutes, with the page automatically refreshed every 10 minutes)

About weather observations | Map of weather stations | Latest weather observations for SA | Other Formats
Station Details ID: 021139 Name: PORT PIRIE AERODROME AWS Lat: -33.24 Lon: 138.00 Height: 12.0 m
Data from the previous 72 hours. | See also: Recent months for locations in South Australia
Date/Time
CDT
Temp
°C
App
Temp
°C
Dew
Point
°C
Rel
Hum
%
Delta-T
°C
Wind Press
QNH
hPa
Press
MSL
hPa
Rain since
9am
mm
Dir  Spd
km/h
Gust
km/h
Spd
kts
Gust
kts
24/08:00pm 32.2 30.0 13.4 32 11.4 SSW 17 26 9 14 1000.7 1000.7 0.0
24/07:30pm 32.4 30.8 15.0 35 10.8 SSW 17 33 9 18 1000.6 1000.6 0.0
24/07:15pm 36.5 34.6 10.6 21 15.2 NW 11 41 6 22 1000.2 1000.2 0.0
24/07:00pm 40.0 37.1 2.6 10 19.8 NNW 7 9 4 5 1000.0 1000.0 0.0
24/06:30pm 40.6 36.4 1.6 9 20.5 WNW 13 15 7 8 999.9 999.9 0.0
24/06:00pm 41.2 35.9 2.0 9 20.8 WNW 19 24 10 13 999.9 999.9 0.0
24/05:30pm 41.9 36.2 2.6 9 21.1 WNW 22 28 12 15 1000.0 1000.0 0.0
24/05:00pm 42.5 35.8 1.3 8 21.7 WNW 26 32 14 17 1000.2 1000.2 0.0
24/04:30pm 44.0 37.8 2.4 8 22.5 WNW 24 35 13 19 1000.5 1000.5 0.0
24/04:00pm 43.4 36.4 2.0 8 22.1 WNW 28 35 15 19 1001.0 1001.0 0.0
24/03:30pm 43.2 35.4 1.9 8 22.1 NW 32 44 17 24 1001.4 1001.4 0.0
24/03:00pm 43.0 35.5 3.4 9 21.6 NW 32 46 17 25 1002.0 1002.0 0.0
24/02:30pm 42.8 35.3 3.2 9 21.5 NW 32 41 17 22 1002.5 1002.5 0.0
24/02:00pm 41.7 34.3 3.9 10 20.6 NW 32 41 17 22 1002.8 1002.8 0.0
24/01:30pm 41.1 33.0 3.4 10 20.4 NW 35 41 19 22 1003.3 1003.3 0.0
24/01:00pm 42.0 35.4 4.1 10 20.7 NNW 28 39 15 21 1003.7 1003.7 0.0
24/12:30pm 40.2 33.5 5.4 12 19.3 NNW 30 37 16 20 1004.1 1004.1 0.0
24/12:00pm 41.9 34.3 4.0 10 20.8 NNW 33 43 18 23 1004.2 1004.2 0.0
24/11:30am 40.8 33.6 3.2 10 20.2 NNW 30 41 16 22 1004.4 1004.4 0.0
24/11:00am 40.3 34.1 4.2 11 19.6 NNW 26 37 14 20 1004.6 1004.6 0.0
24/10:30am 40.1 34.0 2.7 10 19.9 N 24 35 13 19 1004.7 1004.7 0.0
24/10:00am 38.9 32.9 3.1 11 19.0 N 24 32 13 17 1005.0 1005.0 0.0
24/09:30am 37.0 30.7 1.7 11 18.2 N 24 33 13 18 1005.1 1005.1 0.0
24/09:00am 37.1 31.0 0.4 10 18.5 N 22 28 12 15 1005.0 1005.0 0.0
24/08:30am 35.1 31.8 2.6 13 16.8 N 9 13 5 7 1005.0 1005.0 0.0
24/08:00am 30.7 30.6 9.6 27 11.9 CALM 0 6 0 3 1004.8 1004.8 0.0
24/07:30am 28.8 27.1 10.0 31 10.6 W 9 13 5 7 1004.6 1004.6 0.0
24/07:00am 26.8 23.4 2.0 20 12.0 WNW 9 17 5 9 1004.6 1004.6 0.0
24/06:30am 26.8 23.4 -0.3 17 12.6 ESE 7 9 4 5 1004.1 1004.1 0.0
24/06:00am 28.0 24.9 1.5 18 12.9 ENE 7 11 4 6 1004.0 1004.0 0.0
24/05:30am 28.5 24.6 -1.6 14 13.9 ENE 9 11 5 6 1003.9 1003.9 0.0
24/05:00am 31.2 25.8 -1.5 12 15.3 NNE 17 26 9 14 1003.9 1003.9 0.0
24/04:30am 32.7 27.9 -2.9 10 16.6 NE 13 17 7 9 1003.7 1003.7 0.0
24/04:00am 33.4 27.1 -3.7 9 17.1 NE 20 35 11 19 1003.8 1003.8 0.0
24/03:30am 34.1 26.0 -3.2 9 17.4 ENE 30 37 16 20 1004.0 1004.0 0.0
24/03:00am 34.1 26.4 -3.2 9 17.4 ENE 28 37 15 20 1004.4 1004.4 0.0
24/02:30am 33.9 26.7 -2.0 10 17.1 ENE 26 37 14 20 1004.6 1004.6 0.0
24/02:00am 34.0 29.5 -3.3 9 17.3 NE 11 20 6 11 1005.1 1005.1 0.0
24/01:30am 32.1 26.8 -3.3 10 16.3 NE 15 20 8 11 1005.4 1005.4 0.0
24/01:00am 28.2 22.2 -1.8 14 13.7 SE 20 20 11 11 1005.1 1005.1 0.0
24/12:30am 29.4 23.0 -1.9 13 14.4 SE 22 24 12 13 1005.5 1005.5 0.0
24/12:00am 28.5 22.6 -0.6 15 13.6 SE 20 22 11 12 1005.6 1005.6 0.0
 
Date/Time
CDT
Temp
°C
App
Temp
°C
Dew
Point
°C
Rel
Hum
%
Delta-T
°C
Wind Press
QNH
hPa
Press
MSL
hPa
Rain since
9am
mm
Dir  Spd
km/h
Gust
km/h
Spd
kts
Gust
kts
23/11:30pm 29.1 22.3 0.7 16 13.7 SE 26 30 14 16 1005.6 1005.6 0.0
23/11:00pm 30.0 24.2 2.3 17 13.8 ESE 22 32 12 17 1005.9 1005.9 0.0
23/10:30pm 29.0 23.2 -0.2 15 13.8 ESE 20 24 11 13 1006.1 1006.1 0.0
23/10:00pm 28.7 23.4 -0.5 15 13.7 SE 17 19 9 10 1005.9 1005.9 0.0
23/09:30pm 31.4 25.6 -0.3 13 15.3 SE 20 24 11 13 1005.7 1005.7 0.0
23/09:00pm 32.5 27.1 4.3 17 14.8 S 22 26 12 14 1005.4 1005.4 0.0
23/08:30pm 33.7 27.8 -2.1 10 17.0 SSW 19 20 10 11 1005.0 1005.0 0.0
23/08:00pm 37.5 32.0 -2.3 8 19.3 SSW 17 20 9 11 1004.8 1004.8 0.0
23/07:30pm 39.9 34.4 -2.4 7 20.8 S 17 22 9 12 1004.8 1004.8 0.0
23/07:00pm 40.4 34.3 -2.0 7 21.0 S 20 26 11 14 1004.7 1004.7 0.0
23/06:30pm 40.7 34.7 -1.8 7 21.2 SSW 20 28 11 15 1004.6 1004.6 0.0
23/06:00pm 40.8 35.0 -1.7 7 21.3 SW 19 24 10 13 1004.5 1004.5 0.0
23/05:30pm 41.9 36.2 -0.9 7 21.8 WSW 19 28 10 15 1004.6 1004.6 0.0
23/05:00pm 41.4 35.6 -1.3 7 21.5 WSW 19 30 10 16 1004.7 1004.7 0.0
23/04:30pm 41.5 36.5 -1.2 7 21.6 WSW 15 28 8 15 1005.0 1005.0 0.0
23/04:00pm 40.8 35.4 -1.7 7 21.2 WSW 17 24 9 13 1005.2 1005.2 0.0
23/03:30pm 41.7 36.7 -1.1 7 21.7 WNW 15 30 8 16 1005.6 1005.6 0.0
23/03:00pm 40.7 35.2 -1.8 7 21.2 W 17 24 9 13 1005.9 1005.9 0.0
23/02:30pm 40.4 34.7 -4.1 6 21.4 NNW 17 30 9 16 1006.3 1006.3 0.0
23/02:00pm 40.3 35.6 -2.1 7 21.0 NNW 13 22 7 12 1006.6 1006.6 0.0
23/01:30pm 39.1 34.5 -1.1 8 20.1 NNW 13 26 7 14 1007.0 1007.0 0.0
23/01:00pm 39.2 34.2 -1.1 8 20.1 NNW 15 24 8 13 1007.3 1007.3 0.0
23/12:30pm 38.4 33.0 -1.6 8 19.7 N 17 26 9 14 1007.6 1007.6 0.0
23/12:00pm 38.2 31.8 -1.8 8 19.6 N 22 35 12 19 1007.6 1007.6 0.0
23/11:30am 38.5 31.1 -3.4 7 20.1 N 26 35 14 19 1007.9 1007.9 0.0
23/11:00am 36.9 29.0 -4.5 7 19.3 N 28 41 15 22 1008.1 1008.1 0.0
23/10:57am 38.2 31.2 -3.6 7 19.9 N 24 41 13 22 1008.1 1008.1 0.0
23/10:30am 35.0 30.8 -1.1 10 17.5 N 11 17 6 9 1008.3 1008.3 0.0
23/10:00am 33.4 29.9 -1.0 11 16.5 NW 7 13 4 7 1008.7 1008.7 0.0
23/09:30am 32.3 28.9 -0.7 12 15.8 WSW 7 11 4 6 1009.0 1009.0 0.0
23/09:00am 30.4 26.7 -0.1 14 14.6 WSW 9 11 5 6 1008.8 1008.8 0.0
23/08:30am 27.9 23.9 0.6 17 13.0 SW 11 13 6 7 1009.0 1009.0 0.0
23/08:00am 24.1 22.1 2.3 24 10.4 WSW 2 9 1 5 1008.9 1008.9 0.0
23/07:30am 20.7 17.7 2.0 29 8.7 E 7 11 4 6 1008.7 1008.7 0.0
23/07:00am 16.7 13.2 1.2 35 6.8 E 9 11 5 6 1008.8 1008.8 0.0
23/06:30am 15.9 11.5 0.5 35 6.6 ESE 13 17 7 9 1008.7 1008.7 0.0
23/06:00am 16.7 13.1 0.8 34 7.0 SE 9 11 5 6 1008.5 1008.5 0.0
23/05:30am 16.4 12.8 0.5 34 6.9 SSE 9 13 5 7 1008.6 1008.6 0.0
23/05:00am 16.4 12.1 0.9 35 6.8 SSE 13 15 7 8 1008.2 1008.2 0.0
23/04:30am 17.5 13.6 1.1 33 7.3 SE 11 13 6 7 1008.0 1008.0 0.0
23/04:00am 18.3 13.3 1.3 32 7.6 SE 17 20 9 11 1008.3 1008.3 0.0
23/03:30am 19.0 14.4 1.5 31 7.9 SE 15 17 8 9 1008.3 1008.3 0.0
23/03:00am 19.8 13.9 1.7 30 8.3 SE 22 26 12 14 1008.4 1008.4 0.0
23/02:30am 20.2 14.7 1.6 29 8.5 SE 20 24 11 13 1008.7 1008.7 0.0
23/02:00am 20.5 14.9 0.9 27 8.8 SE 20 24 11 13 1009.0 1009.0 0.0
23/01:30am 20.7 15.5 5.5 37 7.5 SSE 22 26 12 14 1009.1 1009.1 0.0
23/01:00am 20.8 16.6 7.4 42 6.9 SSE 19 22 10 12 1009.4 1009.4 0.0
23/12:30am 21.1 16.8 7.0 40 7.2 SE 19 24 10 13 1009.8 1009.8 0.0
23/12:00am 22.0 17.5 7.0 38 7.7 SE 20 28 11 15 1009.8 1009.8 0.0
 
Date/Time
CDT
Temp
°C
App
Temp
°C
Dew
Point
°C
Rel
Hum
%
Delta-T
°C
Wind Press
QNH
hPa
Press
MSL
hPa
Rain since
9am
mm
Dir  Spd
km/h
Gust
km/h
Spd
kts
Gust
kts
22/11:30pm 22.8 17.5 7.0 36 8.2 SE 24 28 13 15 1009.8 1009.8 0.0
22/11:00pm 23.1 18.4 5.1 31 9.0 SE 19 22 10 12 1009.9 1009.9 0.0
22/10:30pm 23.8 18.6 2.6 25 10.2 SE 19 20 10 11 1009.8 1009.8 0.0
22/10:00pm 25.4 19.9 0.8 20 11.5 SE 19 24 10 13 1009.6 1009.6 0.0
22/09:30pm 26.3 20.2 -2.4 15 12.8 SE 20 24 11 13 1009.3 1009.3 0.0
22/09:00pm 27.9 22.1 -0.2 16 13.2 SSE 20 24 11 13 1009.1 1009.1 0.0
22/08:30pm 30.6 24.1 0.1 14 14.7 SSE 24 30 13 16 1008.8 1008.8 0.0
22/08:00pm 32.7 25.5 0.7 13 15.7 S 28 39 15 21 1008.6 1008.6 0.0
22/07:30pm 33.3 26.8 6.6 19 14.6 SSW 30 35 16 19 1008.4 1008.4 0.0
22/07:00pm 33.8 26.3 3.6 15 15.7 SSW 32 39 17 21 1008.1 1008.1 0.0
22/06:30pm 34.1 26.0 -0.5 11 16.9 SW 32 39 17 21 1007.9 1007.9 0.0
22/06:00pm 35.2 27.7 3.7 14 16.6 SW 32 39 17 21 1007.8 1007.8 0.0
22/05:30pm 34.6 27.1 3.2 14 16.3 SW 32 39 17 21 1007.9 1007.9 0.0
22/05:00pm 35.2 27.4 2.6 13 16.8 SW 33 41 18 22 1008.1 1008.1 0.0
22/04:30pm 35.4 28.2 2.8 13 16.9 SSW 30 35 16 19 1008.1 1008.1 0.0
22/04:00pm 35.9 28.9 6.2 16 16.3 SW 32 37 17 20 1008.5 1008.5 0.0
22/03:30pm 34.6 28.0 8.4 20 14.8 SW 33 41 18 22 1008.7 1008.7 0.0
22/03:00pm 34.9 28.1 7.1 18 15.4 SW 32 37 17 20 1008.9 1008.9 0.0
22/02:30pm 34.8 28.2 7.8 19 15.1 SW 32 39 17 21 1009.1 1009.1 0.0
22/02:00pm 35.3 28.8 6.6 17 15.8 SW 30 41 16 22 1009.2 1009.2 0.0
22/01:30pm 34.9 27.9 6.2 17 15.7 SW 32 39 17 21 1009.5 1009.5 0.0
22/01:00pm 35.3 28.8 4.8 15 16.3 SW 28 35 15 19 1009.6 1009.6 0.0
22/12:30pm 35.5 30.6 -3.8 8 18.3 SSW 13 22 7 12 1009.7 1009.7 0.0
22/12:00pm 34.7 29.7 -4.4 8 18.0 SSW 13 22 7 12 1009.9 1009.9 0.0
22/11:30am 34.0 28.2 -4.9 8 17.6 SSE 17 26 9 14 1010.3 1010.3 0.0
22/11:00am 33.7 30.3 -0.8 11 16.7 SE 7 15 4 8 1010.3 1010.3 0.0
22/10:30am 31.1 28.3 3.2 17 14.2 SSW 7 9 4 5 1010.4 1010.4 0.0
22/10:00am 29.4 27.6 3.4 19 13.1 E 2 7 1 4 1010.6 1010.6 0.0
22/09:30am 26.8 24.9 5.1 25 11.1 ESE 4 7 2 4 1010.9 1010.9 0.0
22/09:00am 23.3 21.9 5.7 32 8.9 NNE 2 6 1 3 1010.9 1010.9 0.0
22/08:30am 21.0 19.7 6.2 38 7.4 SE 2 7 1 4 1010.8 1010.8 0.0
22/08:00am 18.1 15.8 5.0 42 6.3 SSE 6 11 3 6 1010.8 1010.8 0.0
22/07:30am 17.8 16.0 7.8 52 5.1 S 7 11 4 6 1010.7 1010.7 0.0
22/07:00am 15.1 13.2 7.4 60 3.8 S 7 9 4 5 1010.4 1010.4 0.0
22/06:30am 15.1 13.3 7.9 62 3.6 SSE 7 9 4 5 1010.1 1010.1 0.0
22/06:00am 16.4 13.9 8.1 58 4.2 ENE 11 13 6 7 1009.8 1009.8 0.0
22/05:30am 17.0 13.3 7.9 55 4.6 S 17 20 9 11 1009.5 1009.5 0.0
22/05:00am 17.9 13.8 7.9 52 5.1 SSW 19 22 10 12 1009.1 1009.1 0.0
22/04:30am 18.1 13.6 8.4 53 5.0 S 22 28 12 15 1008.7 1008.7 0.0
22/04:00am 18.8 14.1 5.3 41 6.6 SE 19 22 10 12 1008.3 1008.3 0.0
22/03:30am 19.8 14.5 3.1 33 7.9 SE 20 22 11 12 1008.3 1008.3 0.0
22/03:00am 19.6 14.2 2.5 32 7.9 SE 20 22 11 12 1008.4 1008.4 0.0
22/02:30am 20.1 14.9 2.5 31 8.2 SE 19 20 10 11 1008.6 1008.6 0.0
22/02:00am 20.8 15.5 3.1 31 8.4 SE 20 22 11 12 1008.8 1008.8 0.0
22/01:30am 21.3 16.3 4.4 33 8.2 SE 20 24 11 13 1009.4 1009.4 0.0
22/01:00am 22.3 17.5 5.7 34 8.3 SE 20 26 11 14 1009.6 1009.6 0.0
22/12:30am 22.1 17.3 4.7 32 8.6 SE 19 22 10 12 1009.9 1009.9 0.0
22/12:00am 23.2 18.2 6.5 34 8.6 SE 22 28 12 15 1010.0 1010.0 0.0
 
Date/Time
CDT
Temp
°C
App
Temp
°C
Dew
Point
°C
Rel
Hum
%
Delta-T
°C
Wind Press
QNH
hPa
Press
MSL
hPa
Rain since
9am
mm
Dir  Spd
km/h
Gust
km/h
Spd
kts
Gust
kts
21/11:30pm 23.0 19.0 5.0 31 9.0 ESE 15 20 8 11 1010.0 1010.0 0.0
21/11:00pm 25.2 19.6 3.2 24 10.8 SE 22 30 12 16 1010.1 1010.1 0.0
21/10:30pm 24.2 19.5 1.2 22 10.8 SE 15 17 8 9 1010.0 1010.0 0.0
21/10:00pm 27.0 20.6 0.7 18 12.4 SSE 24 28 13 15 1009.7 1009.7 0.0
21/09:30pm 28.5 21.7 1.1 17 13.2 S 26 35 14 19 1009.1 1009.1 0.0
21/09:00pm 29.4 23.7 -0.9 14 14.2 SSE 19 22 10 12 1008.7 1008.7 0.0
21/08:30pm 31.0 25.9 3.1 17 14.2 S 19 24 10 13 1008.2 1008.2 0.0

Other formats

Comma delimited format used in spreadsheet applications
http://www.bom.gov.au/fwo/IDS60801/IDS60801.99749.axf

JavaScript Object Notation format (JSON) in row-major order
http://www.bom.gov.au/fwo/IDS60801/IDS60801.99749.json

Data quality

Most of these data are generated automatically and are frequently updated. Quality checks on data are not normally performed. It is possible for incorrect values to appear. Refer to information at About Latest Weather Observations and please check the disclaimer before using these data.